Time;durP1;ratioP1;P1;durP2;ratioP2;P2;SDS_P1;SDS_P2;PMS_P1;PMS_P2;Temp;Humidity;BMP_temperature;BMP_pressure;BME280_temperature;BME280_humidity;BME280_pressure;Samples;Min_cycle;Max_cycle;Signal;HPM_P1;HPM_P2
2022/02/26 00:02:20;;;;;;;9.50;4.60;;;3.20;99.90;;;;;;5069321;28;20403;-56
2022/02/26 00:04:46;;;;;;;14.00;4.70;;;3.40;99.90;;;;;;5049056;28;20424;-59
2022/02/26 00:07:12;;;;;;;11.50;4.43;;;3.50;99.90;;;;;;5068835;28;20457;-57
2022/02/26 00:09:38;;;;;;;12.60;4.20;;;5.20;99.90;;;;;;5068166;28;20403;-57
2022/02/26 00:12:05;;;;;;;8.83;3.80;;;3.60;99.90;;;;;;5069047;28;20488;-55
2022/02/26 00:14:31;;;;;;;11.40;4.13;;;3.60;99.90;;;;;;5069760;28;20414;-57
2022/02/26 00:16:56;;;;;;;12.13;4.20;;;3.70;99.90;;;;;;5070662;28;20391;-56
2022/02/26 00:19:22;;;;;;;11.80;4.70;;;3.80;99.90;;;;;;5071416;28;20406;-56
2022/02/26 00:21:47;;;;;;;9.40;4.10;;;3.90;99.90;;;;;;5089691;28;20398;-56
2022/02/26 00:24:13;;;;;;;12.23;3.85;;;4.10;99.90;;;;;;5078255;28;21270;-55
2022/02/26 00:26:39;;;;;;;10.32;4.35;;;4.00;99.90;;;;;;5071641;28;20387;-55
2022/02/26 00:29:05;;;;;;;12.93;4.20;;;3.90;99.90;;;;;;5083410;28;20382;-56
2022/02/26 00:31:31;;;;;;;8.20;3.80;;;3.90;99.90;;;;;;5072065;28;21130;-55
2022/02/26 00:33:57;;;;;;;11.13;3.80;;;4.00;99.90;;;;;;5069287;28;20796;-55
2022/02/26 00:36:22;;;;;;;9.15;3.70;;;3.90;99.90;;;;;;5070216;28;20387;-56
2022/02/26 00:38:48;;;;;;;11.07;3.87;;;4.00;99.90;;;;;;5069935;28;20392;-55
2022/02/26 00:41:14;;;;;;;11.90;4.20;;;3.90;99.90;;;;;;5069166;28;20450;-55
2022/02/26 00:43:39;;;;;;;9.82;3.90;;;4.50;99.90;;;;;;5052084;28;20477;-58
2022/02/26 00:46:09;;;;;;;9.90;4.50;;;4.00;99.90;;;;;;5051420;28;20387;-55
2022/02/26 00:51:20;;;;;;;10.10;4.10;;;4.40;99.90;;;;;;5061121;28;20423;-55
2022/02/26 00:53:45;;;;;;;11.75;4.50;;;4.00;99.90;;;;;;5050064;28;20409;-56
2022/02/26 00:56:12;;;;;;;10.00;4.75;;;4.00;99.90;;;;;;5049033;28;21013;-56
2022/02/26 00:58:37;;;;;;;9.48;4.00;;;4.00;99.90;;;;;;5052823;28;20494;-55
2022/02/26 01:01:03;;;;;;;10.00;4.10;;;5.20;99.90;;;;;;5062586;28;20878;-56
2022/02/26 01:03:29;;;;;;;11.53;4.30;;;3.90;99.90;;;;;;5063136;28;20380;-55
2022/02/26 01:05:55;;;;;;;10.80;4.05;;;3.90;99.90;;;;;;5069049;28;20462;-59
2022/02/26 01:08:21;;;;;;;12.02;4.32;;;3.80;99.90;;;;;;5051507;28;20426;-56
2022/02/26 01:10:46;;;;;;;7.20;3.53;;;5.60;99.90;;;;;;5069680;28;20379;-56
2022/02/26 01:13:18;;;;;;;10.50;4.10;;;5.00;99.90;;;;;;5069051;28;20383;-56
2022/02/26 01:15:44;;;;;;;12.45;4.05;;;3.50;99.90;;;;;;5065371;28;20410;-56
2022/02/26 01:18:09;;;;;;;10.70;4.30;;;3.40;99.90;;;;;;5056476;28;21193;-56
2022/02/26 01:20:35;;;;;;;9.85;4.63;;;4.50;99.90;;;;;;5056682;28;20401;-56
2022/02/26 01:23:01;;;;;;;12.20;4.03;;;5.50;99.90;;;;;;5030304;28;20917;-56
2022/02/26 01:25:27;;;;;;;11.60;4.10;;;3.50;99.90;;;;;;5031347;28;20476;-55
2022/02/26 01:27:52;;;;;;;8.55;3.67;;;3.60;99.90;;;;;;5037949;28;21228;-59
2022/02/26 01:30:18;;;;;;;12.10;4.23;;;3.60;99.90;;;;;;5068695;28;20383;-57
2022/02/26 01:32:44;;;;;;;12.95;4.32;;;4.60;99.90;;;;;;5069976;28;20374;-55
2022/02/26 01:35:10;;;;;;;11.93;4.43;;;3.80;99.90;;;;;;5055026;28;20453;-55
2022/02/26 01:37:36;;;;;;;8.80;4.05;;;3.70;99.90;;;;;;5055435;28;20754;-57
2022/02/26 01:40:02;;;;;;;13.68;4.50;;;3.80;99.90;;;;;;5072887;28;20387;-56
2022/02/26 01:42:28;;;;;;;8.75;4.35;;;3.80;99.90;;;;;;5073371;28;20387;-55
2022/02/26 01:44:54;;;;;;;13.13;4.10;;;4.40;99.90;;;;;;5071579;28;20441;-59
2022/02/26 01:47:21;;;;;;;10.52;4.03;;;3.80;99.90;;;;;;5072940;28;20722;-55
2022/02/26 01:49:47;;;;;;;9.40;4.03;;;3.70;99.90;;;;;;5073374;28;20796;-55
2022/02/26 01:52:17;;;;;;;11.13;4.18;;;3.60;99.90;;;;;;5072756;28;20425;-56
2022/02/26 01:54:45;;;;;;;11.43;4.55;;;4.90;99.90;;;;;;5055959;28;20403;-55
2022/02/26 01:57:10;;;;;;;11.43;4.50;;;3.40;99.90;;;;;;5072504;28;20383;-55
2022/02/26 01:59:36;;;;;;;11.10;3.90;;;3.40;99.90;;;;;;5072900;28;20861;-56
2022/02/26 02:02:02;;;;;;;12.87;4.73;;;3.40;99.90;;;;;;5072529;28;20386;-56
2022/02/26 02:04:27;;;;;;;10.90;4.65;;;3.50;99.90;;;;;;5055289;28;20467;-55
2022/02/26 02:06:54;;;;;;;15.55;4.90;;;3.70;99.90;;;;;;5073019;28;20484;-59
2022/02/26 02:09:20;;;;;;;12.73;5.25;;;3.60;99.90;;;;;;5072806;28;20390;-55
2022/02/26 02:11:46;;;;;;;10.77;4.20;;;3.70;99.90;;;;;;5073235;28;21159;-55
2022/02/26 02:14:12;;;;;;;10.23;4.50;;;3.70;99.90;;;;;;5071923;28;20446;-56
2022/02/26 02:16:38;;;;;;;10.93;4.67;;;4.90;99.90;;;;;;5073054;28;20412;-56
2022/02/26 02:19:08;;;;;;;13.55;4.75;;;3.60;99.90;;;;;;5071763;28;20387;-56
2022/02/26 02:21:34;;;;;;;12.27;4.70;;;3.70;99.90;;;;;;5072485;28;20430;-55
2022/02/26 02:24:00;;;;;;;11.10;4.50;;;3.80;99.90;;;;;;5054171;28;20399;-56
2022/02/26 02:26:28;;;;;;;11.57;5.00;;;3.80;99.90;;;;;;5072634;28;20459;-56
2022/02/26 02:28:54;;;;;;;12.82;4.80;;;3.80;99.90;;;;;;5072006;28;20411;-59
2022/02/26 02:31:19;;;;;;;10.10;4.40;;;3.80;99.90;;;;;;5054374;28;20446;-56
2022/02/26 02:33:47;;;;;;;12.23;4.32;;;3.90;99.90;;;;;;5072523;28;20403;-55
2022/02/26 02:36:13;;;;;;;10.18;4.65;;;4.00;99.90;;;;;;5071623;28;20391;-56
2022/02/26 02:38:39;;;;;;;10.18;5.15;;;3.70;99.90;;;;;;5072284;28;20387;-56
2022/02/26 02:41:05;;;;;;;11.85;4.80;;;3.50;99.90;;;;;;5070283;28;20384;-55
2022/02/26 02:43:31;;;;;;;15.90;5.10;;;3.40;99.90;;;;;;5054500;28;20380;-56
2022/02/26 02:45:58;;;;;;;11.00;4.50;;;3.40;99.90;;;;;;5071061;28;20455;-60
2022/02/26 02:48:24;;;;;;;11.07;4.50;;;3.40;99.90;;;;;;5062842;28;20409;-57
2022/02/26 02:50:50;;;;;;;10.15;4.80;;;3.90;99.90;;;;;;5060151;28;20428;-58
2022/02/26 02:53:18;;;;;;;13.70;4.88;;;5.10;99.90;;;;;;5051749;28;20438;-56
2022/02/26 02:55:49;;;;;;;10.50;4.53;;;3.60;99.90;;;;;;5051597;28;20933;-58
2022/02/26 02:58:28;;;;;;;12.23;5.10;;;3.70;99.90;;;;;;5051237;28;20382;-56
2022/02/26 03:00:56;;;;;;;11.40;4.75;;;3.70;99.90;;;;;;5051693;28;20370;-59
2022/02/26 03:03:22;;;;;;;11.98;4.90;;;3.70;99.90;;;;;;5051950;28;20464;-56
2022/02/26 03:05:48;;;;;;;11.95;5.07;;;3.70;99.90;;;;;;5051969;28;20408;-55
2022/02/26 03:08:14;;;;;;;13.40;5.43;;;3.60;99.90;;;;;;5051072;28;20385;-55
2022/02/26 03:10:41;;;;;;;13.00;4.90;;;3.60;99.90;;;;;;5051810;28;20847;-55
2022/02/26 03:13:07;;;;;;;13.73;5.18;;;3.40;99.90;;;;;;5032876;28;20401;-55
2022/02/26 03:15:32;;;;;;;12.27;5.63;;;3.30;99.90;;;;;;5051568;28;20401;-56
2022/02/26 03:17:59;;;;;;;13.02;5.13;;;3.30;99.90;;;;;;5050415;28;20432;-59
2022/02/26 03:20:24;;;;;;;15.40;5.57;;;4.10;99.90;;;;;;5050661;28;20393;-56
2022/02/26 03:22:51;;;;;;;13.57;5.20;;;3.20;99.90;;;;;;5050161;28;20408;-56
2022/02/26 03:25:17;;;;;;;13.82;5.30;;;3.20;99.90;;;;;;5049952;28;20403;-56
2022/02/26 03:27:43;;;;;;;11.30;5.20;;;3.20;99.90;;;;;;5051370;28;20373;-56
2022/02/26 03:30:10;;;;;;;13.77;5.28;;;3.20;99.90;;;;;;5050756;28;20464;-56
2022/02/26 03:32:36;;;;;;;13.07;5.40;;;3.30;99.90;;;;;;5051005;28;20386;-56
2022/02/26 03:35:03;;;;;;;15.65;5.50;;;3.40;99.90;;;;;;5050342;28;20405;-56
2022/02/26 03:37:31;;;;;;;17.23;6.00;;;3.40;99.90;;;;;;5064789;28;20392;-56
2022/02/26 03:39:57;;;;;;;14.82;5.72;;;3.40;99.90;;;;;;5069102;28;20376;-59
2022/02/26 03:42:23;;;;;;;12.82;4.72;;;3.40;99.90;;;;;;5059885;28;20389;-56
2022/02/26 03:44:49;;;;;;;16.27;5.65;;;5.40;99.90;;;;;;5066807;28;20418;-59
2022/02/26 03:47:18;;;;;;;14.98;5.40;;;3.60;99.90;;;;;;5053796;28;20461;-55
2022/02/26 03:49:46;;;;;;;11.48;5.40;;;3.50;99.90;;;;;;5050733;28;20420;-55
2022/02/26 03:52:12;;;;;;;13.77;5.65;;;3.50;99.90;;;;;;5049876;28;20417;-56
2022/02/26 03:54:38;;;;;;;12.98;5.63;;;3.60;99.90;;;;;;5050847;28;20828;-56
2022/02/26 03:57:04;;;;;;;16.53;5.63;;;3.60;99.90;;;;;;5048654;28;20485;-56
2022/02/26 03:59:29;;;;;;;12.80;5.63;;;3.60;99.90;;;;;;5050842;28;20789;-55
2022/02/26 04:01:55;;;;;;;15.05;5.85;;;3.50;99.90;;;;;;5050295;28;20374;-59
2022/02/26 04:04:21;;;;;;;14.32;4.97;;;3.50;99.90;;;;;;5032651;28;20992;-55
2022/02/26 04:06:50;;;;;;;13.30;5.28;;;3.40;99.90;;;;;;5050461;28;20424;-56
2022/02/26 04:09:15;;;;;;;17.75;6.30;;;3.30;99.90;;;;;;5050072;28;20385;-55
2022/02/26 04:11:41;;;;;;;14.15;5.70;;;4.70;99.90;;;;;;5050512;28;20435;-56
2022/02/26 04:14:06;;;;;;;17.97;6.57;;;5.20;99.90;;;;;;5049757;28;20401;-56
2022/02/26 04:16:32;;;;;;;17.17;6.10;;;3.30;99.90;;;;;;5050043;28;20463;-56
2022/02/26 04:18:58;;;;;;;20.13;6.47;;;3.40;99.90;;;;;;5049536;28;20439;-59
2022/02/26 04:21:25;;;;;;;14.70;5.90;;;3.30;99.90;;;;;;5049874;28;20410;-55
2022/02/26 04:23:52;;;;;;;15.30;6.10;;;3.30;99.90;;;;;;5050321;28;20495;-55
2022/02/26 04:26:17;;;;;;;14.45;6.10;;;3.40;99.90;;;;;;5049173;28;20671;-55
2022/02/26 04:28:43;;;;;;;17.95;6.60;;;3.30;99.90;;;;;;5049814;28;20948;-56
2022/02/26 04:31:10;;;;;;;15.17;6.43;;;3.20;99.90;;;;;;5048999;28;20384;-56
2022/02/26 04:33:35;;;;;;;13.95;6.30;;;4.40;99.90;;;;;;5049522;28;20460;-55
2022/02/26 04:36:01;;;;;;;18.38;6.80;;;3.90;99.90;;;;;;5049236;28;20511;-56
2022/02/26 04:38:29;;;;;;;13.45;6.63;;;3.20;99.90;;;;;;5053795;28;20420;-55
2022/02/26 04:40:58;;;;;;;18.85;7.80;;;4.90;99.90;;;;;;5064062;28;20472;-59
2022/02/26 04:43:24;;;;;;;13.85;6.60;;;3.30;99.90;;;;;;5050264;28;20440;-55
2022/02/26 04:45:50;;;;;;;15.05;6.50;;;4.30;99.90;;;;;;5049815;28;20847;-56
2022/02/26 04:48:15;;;;;;;17.40;6.70;;;3.30;99.90;;;;;;5048959;28;20460;-56
2022/02/26 04:50:41;;;;;;;17.38;6.80;;;3.30;99.90;;;;;;5049321;28;20511;-56
2022/02/26 04:53:07;;;;;;;15.03;6.60;;;3.40;99.90;;;;;;5049202;28;20381;-56
2022/02/26 04:55:32;;;;;;;15.85;7.25;;;3.40;99.90;;;;;;5054213;28;20407;-56
2022/02/26 04:57:58;;;;;;;19.60;6.80;;;2.40;99.90;;;;;;5057632;28;20469;-59
2022/02/26 05:00:24;;;;;;;15.63;6.90;;;3.50;99.90;;;;;;5049773;28;20443;-56
2022/02/26 05:02:49;;;;;;;17.70;7.40;;;3.50;99.90;;;;;;5049742;28;20386;-55
2022/02/26 05:05:15;;;;;;;16.63;7.40;;;3.50;99.90;;;;;;5049150;28;20397;-56
2022/02/26 05:07:40;;;;;;;17.50;7.07;;;3.50;99.90;;;;;;5059636;28;20397;-55
2022/02/26 05:10:07;;;;;;;17.70;6.68;;;3.60;99.90;;;;;;5048629;28;20384;-57
2022/02/26 05:12:32;;;;;;;14.18;6.07;;;3.60;99.90;;;;;;5049281;28;20373;-56
2022/02/26 05:14:58;;;;;;;18.45;6.72;;;3.50;99.90;;;;;;5048592;28;20412;-59
2022/02/26 05:17:24;;;;;;;14.05;6.40;;;3.60;99.90;;;;;;5049149;28;20456;-56
2022/02/26 05:19:49;;;;;;;19.83;7.47;;;3.80;99.90;;;;;;5048997;28;21111;-56
2022/02/26 05:22:15;;;;;;;19.85;7.25;;;3.50;99.90;;;;;;5047963;28;20906;-56
2022/02/26 05:24:41;;;;;;;17.50;7.07;;;3.50;99.90;;;;;;5049082;28;20424;-55
2022/02/26 05:27:06;;;;;;;17.90;6.53;;;3.50;99.90;;;;;;5048384;28;20373;-57
2022/02/26 05:29:32;;;;;;;17.80;7.25;;;3.40;99.90;;;;;;5048598;28;20728;-55
2022/02/26 05:31:57;;;;;;;17.20;7.50;;;3.30;99.90;;;;;;5048972;28;20977;-59
2022/02/26 05:34:24;;;;;;;16.30;6.97;;;3.20;99.90;;;;;;5048368;28;20413;-56
2022/02/26 05:36:49;;;;;;;18.13;7.30;;;3.10;99.90;;;;;;5048993;28;20374;-56
2022/02/26 05:39:15;;;;;;;19.92;8.00;;;3.00;99.90;;;;;;5046920;28;20898;-55
2022/02/26 05:41:41;;;;;;;20.63;9.70;;;3.10;99.90;;;;;;5049161;28;20382;-56
2022/02/26 05:44:06;;;;;;;18.10;7.82;;;3.10;99.90;;;;;;5050162;28;20394;-56
2022/02/26 05:46:33;;;;;;;16.35;7.50;;;3.10;99.90;;;;;;5067245;28;20784;-57
2022/02/26 05:48:59;;;;;;;18.20;8.23;;;3.10;99.90;;;;;;5065964;28;20781;-59
2022/02/26 05:51:25;;;;;;;19.35;7.97;;;3.20;99.90;;;;;;5068130;28;20871;-56
2022/02/26 05:53:50;;;;;;;18.33;7.67;;;3.20;99.90;;;;;;5055886;28;20402;-56
2022/02/26 05:56:16;;;;;;;23.05;9.27;;;3.10;99.90;;;;;;5057921;28;21096;-56
2022/02/26 05:58:42;;;;;;;20.90;8.10;;;3.30;99.90;;;;;;5031236;28;20808;-55
2022/02/26 06:01:08;;;;;;;20.27;8.50;;;3.30;99.90;;;;;;5058425;28;20380;-56
2022/02/26 06:03:34;;;;;;;17.85;7.90;;;3.40;99.90;;;;;;5058778;28;20410;-55
2022/02/26 06:06:00;;;;;;;19.73;7.63;;;3.30;99.90;;;;;;5064363;28;20869;-59
2022/02/26 06:08:25;;;;;;;20.10;8.77;;;3.30;99.90;;;;;;5051139;28;20436;-55
2022/02/26 06:10:51;;;;;;;17.95;7.90;;;3.10;99.90;;;;;;5068418;28;20750;-55
2022/02/26 06:13:17;;;;;;;20.75;8.18;;;3.10;99.90;;;;;;5072953;28;20374;-55
2022/02/26 06:15:42;;;;;;;21.47;8.20;;;3.10;99.90;;;;;;5078291;28;20489;-56
2022/02/26 06:18:08;;;;;;;17.90;8.48;;;3.10;99.90;;;;;;5082334;28;20930;-55
2022/02/26 06:20:34;;;;;;;25.80;8.63;;;3.20;99.90;;;;;;5074452;28;20415;-55
2022/02/26 06:22:59;;;;;;;19.67;8.40;;;3.20;99.90;;;;;;5087332;28;21031;-60
2022/02/26 06:25:26;;;;;;;18.30;8.00;;;3.70;99.90;;;;;;5080809;28;20382;-55
2022/02/26 06:27:52;;;;;;;21.90;8.50;;;4.60;99.90;;;;;;5075142;28;20924;-56
2022/02/26 06:30:17;;;;;;;19.55;8.40;;;3.20;99.90;;;;;;5086046;28;20386;-56
2022/02/26 06:32:43;;;;;;;17.02;8.30;;;4.20;99.90;;;;;;5071864;28;20510;-56
2022/02/26 06:35:12;;;;;;;19.98;8.00;;;3.40;99.90;;;;;;5077501;28;20429;-55
2022/02/26 06:37:38;;;;;;;19.38;7.80;;;3.40;99.90;;;;;;5092395;28;20392;-55
2022/02/26 06:40:05;;;;;;;24.45;8.65;;;3.40;99.90;;;;;;5077924;28;20410;-56
2022/02/26 06:42:31;;;;;;;18.85;8.18;;;3.30;99.90;;;;;;5079795;28;20402;-56
2022/02/26 06:44:57;;;;;;;18.80;8.10;;;3.40;99.90;;;;;;5074058;28;20875;-55
2022/02/26 06:47:22;;;;;;;18.30;8.20;;;4.10;99.90;;;;;;5067471;28;20881;-56
2022/02/26 06:49:48;;;;;;;18.90;9.00;;;3.50;99.90;;;;;;5069729;28;20411;-56
2022/02/26 06:52:14;;;;;;;17.67;8.60;;;3.70;99.90;;;;;;5069348;28;20388;-56
2022/02/26 06:54:40;;;;;;;17.50;8.43;;;3.70;99.90;;;;;;5068415;28;20422;-55
2022/02/26 06:57:05;;;;;;;17.70;8.93;;;3.70;99.90;;;;;;5070667;28;20384;-56
2022/02/26 06:59:31;;;;;;;17.08;8.20;;;3.80;99.90;;;;;;5071782;28;20372;-55
2022/02/26 07:01:57;;;;;;;17.83;8.00;;;3.80;99.90;;;;;;5090316;28;20432;-57
2022/02/26 07:04:23;;;;;;;21.60;8.90;;;3.90;99.90;;;;;;5073067;28;20501;-56
2022/02/26 07:06:49;;;;;;;17.03;7.80;;;3.90;99.90;;;;;;5058559;28;20397;-56
2022/02/26 07:09:17;;;;;;;19.43;8.10;;;3.90;99.90;;;;;;5056406;28;20396;-56
2022/02/26 07:11:44;;;;;;;15.32;7.60;;;4.00;99.90;;;;;;5056865;28;20376;-56
2022/02/26 07:14:10;;;;;;;16.60;8.43;;;4.00;99.90;;;;;;5062656;28;20416;-55
2022/02/26 07:16:37;;;;;;;20.35;8.10;;;4.00;99.90;;;;;;5064944;28;20400;-57
2022/02/26 07:19:03;;;;;;;19.33;8.30;;;4.00;99.90;;;;;;5063911;28;20395;-59
2022/02/26 07:21:30;;;;;;;19.15;8.93;;;4.10;99.90;;;;;;5054897;28;20418;-56
2022/02/26 07:23:56;;;;;;;21.83;9.13;;;4.10;99.90;;;;;;5069652;28;20483;-56
2022/02/26 07:26:25;;;;;;;16.67;7.78;;;4.30;99.90;;;;;;5063621;28;20471;-56
2022/02/26 07:28:51;;;;;;;21.15;8.10;;;5.10;99.90;;;;;;5067860;28;20392;-56
2022/02/26 07:31:17;;;;;;;19.63;8.55;;;4.50;99.90;;;;;;5061322;28;20757;-56
2022/02/26 07:33:43;;;;;;;18.73;8.90;;;4.60;99.90;;;;;;5050353;28;20478;-56
2022/02/26 07:36:09;;;;;;;20.80;8.18;;;5.20;99.90;;;;;;5049667;28;20477;-56
2022/02/26 07:38:36;;;;;;;16.10;7.15;;;4.60;99.90;;;;;;5051398;28;20380;-56
2022/02/26 07:41:02;;;;;;;18.75;8.30;;;4.70;99.90;;;;;;5059310;28;20923;-59
2022/02/26 07:43:27;;;;;;;16.98;7.60;;;4.90;99.90;;;;;;5061952;28;20469;-56
2022/02/26 07:45:53;;;;;;;15.67;7.20;;;4.80;99.90;;;;;;5067357;28;20430;-55
2022/02/26 07:48:19;;;;;;;16.80;7.55;;;6.30;99.90;;;;;;5075637;28;20504;-55
2022/02/26 07:50:45;;;;;;;19.50;8.43;;;4.70;99.90;;;;;;5059835;28;20455;-59
2022/02/26 07:53:10;;;;;;;18.60;7.70;;;4.50;99.90;;;;;;5057644;28;20440;-56
2022/02/26 07:55:37;;;;;;;16.60;8.17;;;4.50;99.90;;;;;;5056407;28;21056;-55
2022/02/26 07:58:04;;;;;;;20.67;8.25;;;4.60;99.90;;;;;;5063018;28;20404;-59
2022/02/26 08:00:30;;;;;;;15.35;7.82;;;4.60;99.90;;;;;;5061022;28;20394;-55
2022/02/26 08:02:57;;;;;;;18.27;8.63;;;4.60;99.90;;;;;;5066230;28;21147;-57
2022/02/26 08:05:26;;;;;;;19.52;8.63;;;4.60;99.90;;;;;;5065655;28;20401;-57
2022/02/26 08:07:53;;;;;;;18.63;8.15;;;4.60;99.90;;;;;;5056478;28;20480;-56
2022/02/26 08:10:21;;;;;;;17.10;7.97;;;4.60;99.90;;;;;;5058848;28;20875;-55
2022/02/26 08:12:48;;;;;;;16.05;7.40;;;4.80;99.90;;;;;;5061828;28;20858;-55
2022/02/26 08:15:13;;;;;;;16.10;7.75;;;4.70;99.90;;;;;;5055873;28;20898;-55
2022/02/26 08:17:42;;;;;;;14.32;8.25;;;4.80;99.90;;;;;;5063768;28;20434;-55
2022/02/26 08:20:09;;;;;;;17.60;7.70;;;4.80;99.90;;;;;;5060703;28;20405;-55
2022/02/26 08:22:34;;;;;;;20.35;8.10;;;4.90;99.90;;;;;;5060772;28;20415;-55
2022/02/26 08:25:00;;;;;;;16.63;7.83;;;5.60;99.90;;;;;;5063393;28;20400;-59
2022/02/26 08:27:26;;;;;;;18.70;7.67;;;5.20;99.90;;;;;;5069520;28;20392;-53
2022/02/26 08:29:51;;;;;;;21.85;8.55;;;5.50;99.90;;;;;;5069956;28;20392;-53
2022/02/26 08:32:18;;;;;;;19.17;8.07;;;5.60;99.90;;;;;;5068277;28;20483;-55
2022/02/26 08:34:44;;;;;;;17.95;8.35;;;5.90;99.90;;;;;;5057613;28;20780;-53
2022/02/26 08:37:10;;;;;;;16.95;7.90;;;6.20;99.90;;;;;;5062422;28;20398;-54
2022/02/26 08:39:36;;;;;;;14.93;7.50;;;6.50;99.90;;;;;;5064103;28;20459;-54
2022/02/26 08:42:01;;;;;;;18.93;8.00;;;6.90;99.90;;;;;;5060141;28;20523;-57
2022/02/26 08:44:27;;;;;;;16.38;8.05;;;7.50;99.90;;;;;;5054188;28;20755;-54
2022/02/26 08:46:53;;;;;;;15.57;8.00;;;7.80;99.90;;;;;;5059604;28;20403;-54
2022/02/26 08:49:19;;;;;;;17.73;8.80;;;7.70;99.90;;;;;;5065005;28;20896;-54
2022/02/26 08:51:44;;;;;;;25.27;9.38;;;7.50;99.90;;;;;;5055453;28;20418;-54
2022/02/26 08:54:10;;;;;;;18.80;8.10;;;7.40;99.90;;;;;;5068989;28;20419;-54
2022/02/26 08:56:35;;;;;;;15.80;7.82;;;7.40;99.90;;;;;;5069154;28;20445;-54
2022/02/26 08:59:01;;;;;;;17.47;7.63;;;7.80;99.90;;;;;;5058598;28;20762;-57
2022/02/26 09:01:27;;;;;;;16.45;7.30;;;8.50;99.90;;;;;;5067990;28;20487;-56
2022/02/26 09:03:53;;;;;;;16.87;7.90;;;9.10;99.90;;;;;;5069292;28;20734;-54
2022/02/26 09:06:18;;;;;;;17.75;7.78;;;9.90;99.90;;;;;;5068674;28;20525;-55
2022/02/26 09:08:44;;;;;;;15.23;7.80;;;10.40;99.90;;;;;;5069123;28;21315;-54
2022/02/26 09:11:11;;;;;;;18.15;8.80;;;10.90;99.90;;;;;;5068303;28;20367;-55
2022/02/26 09:13:39;;;;;;;18.15;9.43;;;11.70;99.90;;;;;;5069289;28;20372;-54
2022/02/26 09:16:06;;;;;;;18.38;8.88;;;12.00;99.90;;;;;;5068314;28;20480;-55
2022/02/26 09:18:32;;;;;;;19.50;8.80;;;12.60;99.90;;;;;;5051165;28;20394;-54
2022/02/26 09:20:58;;;;;;;20.35;8.60;;;13.50;99.40;;;;;;5047367;28;20825;-56
2022/02/26 09:23:24;;;;;;;18.92;8.50;;;14.00;97.50;;;;;;5060985;28;20398;-56
2022/02/26 09:25:49;;;;;;;18.87;15.07;;;14.80;94.80;;;;;;5067886;28;20458;-56
2022/02/26 09:28:15;;;;;;;19.05;15.65;;;;;;;;;;5067979;28;20476;-56
2022/02/26 09:30:42;;;;;;;20.43;8.90;;;16.00;90.80;;;;;;5066931;28;20869;-57
2022/02/26 09:33:07;;;;;;;18.33;10.07;;;15.70;89.90;;;;;;5066759;28;20403;-56
2022/02/26 09:35:33;;;;;;;13.68;8.77;;;15.40;89.40;;;;;;5068034;28;20403;-57
2022/02/26 09:37:59;;;;;;;15.88;8.60;;;15.00;88.30;;;;;;5069126;28;20383;-55
2022/02/26 09:40:24;;;;;;;13.90;7.60;;;14.90;88.80;;;;;;5068105;28;21007;-55
2022/02/26 09:42:51;;;;;;;16.25;8.40;;;14.50;87.80;;;;;;5068594;28;20968;-56
2022/02/26 09:45:17;;;;;;;16.70;7.90;;;14.80;87.90;;;;;;5067284;28;20383;-56
2022/02/26 09:47:42;;;;;;;16.73;7.30;;;14.30;86.80;;;;;;5068218;28;20437;-56
2022/02/26 09:50:09;;;;;;;13.60;6.40;;;15.10;81.80;;;;;;5067228;28;20417;-56
2022/02/26 09:52:42;;;;;;;12.90;5.35;;;16.10;72.30;;;;;;5068346;28;20488;-55
2022/02/26 09:55:08;;;;;;;12.35;5.70;;;16.10;72.30;;;;;;5067258;28;20905;-56
2022/02/26 09:57:34;;;;;;;15.52;13.93;;;16.30;72.40;;;;;;5073952;28;20484;-56
2022/02/26 10:00:07;;;;;;;14.35;7.85;;;16.80;69.80;;;;;;5071956;28;20845;-54
2022/02/26 10:02:35;;;;;;;14.35;8.80;;;17.30;67.60;;;;;;5066524;28;20450;-54
2022/02/26 10:05:06;;;;;;;8.73;2.60;;;18.10;63.60;;;;;;5071488;28;20876;-55
2022/02/26 10:07:33;;;;;;;13.13;9.65;;;17.40;51.20;;;;;;5069664;28;20427;-55
2022/02/26 10:09:59;;;;;;;10.73;3.30;;;16.40;51.50;;;;;;5072096;28;20466;-55
2022/02/26 10:12:32;;;;;;;9.70;3.67;;;16.00;51.80;;;;;;5071133;28;20490;-56
2022/02/26 10:15:00;;;;;;;13.07;4.20;;;14.20;55.70;;;;;;5072252;28;20411;-54
2022/02/26 10:17:34;;;;;;;11.77;3.80;;;13.80;58.60;;;;;;5069475;28;20400;-55
2022/02/26 10:20:04;;;;;;;10.30;4.13;;;13.00;57.40;;;;;;5071160;28;20384;-54
2022/02/26 10:22:31;;;;;;;10.43;3.40;;;11.10;58.50;;;;;;5070528;28;20885;-54
2022/02/26 10:25:07;;;;;;;9.95;3.00;;;11.30;58.40;;;;;;5072119;28;20474;-55
2022/02/26 10:27:38;;;;;;;10.38;3.35;;;11.50;59.70;;;;;;5072355;28;20467;-55
2022/02/26 10:30:05;;;;;;;8.82;3.30;;;11.90;60.60;;;;;;5069511;28;20387;-59
2022/02/26 10:32:30;;;;;;;12.70;2.75;;;12.60;55.80;;;;;;5071565;28;20395;-54
2022/02/26 10:34:56;;;;;;;7.60;2.07;;;13.80;56.30;;;;;;5071742;28;20495;-56
2022/02/26 10:37:23;;;;;;;12.23;2.58;;;10.80;54.80;;;;;;5055787;28;20901;-57
2022/02/26 10:39:54;;;;;;;7.43;2.10;;;10.60;57.50;;;;;;5069986;28;20388;-54
2022/02/26 10:42:22;;;;;;;13.27;3.10;;;11.70;58.20;;;;;;5071392;28;20434;-55
2022/02/26 10:44:59;;;;;;;9.88;2.60;;;13.00;56.80;;;;;;5068846;28;20494;-53
2022/02/26 10:47:30;;;;;;;10.15;2.45;;;14.30;54.40;;;;;;5080459;28;20473;-53
2022/02/26 10:49:56;;;;;;;7.90;2.30;;;14.70;52.30;;;;;;5075588;28;20452;-55
2022/02/26 10:52:22;;;;;;;8.75;2.70;;;14.60;48.60;;;;;;5078749;28;20739;-55
2022/02/26 10:54:55;;;;;;;10.40;2.20;;;14.90;51.00;;;;;;5067036;28;20409;-55
2022/02/26 10:57:21;;;;;;;10.80;2.73;;;15.70;49.80;;;;;;5070349;28;20730;-57
2022/02/26 10:59:52;;;;;;;12.27;3.15;;;16.40;49.10;;;;;;5088272;28;20372;-56
2022/02/26 11:02:25;;;;;;;9.02;2.55;;;16.30;50.40;;;;;;5077403;28;20377;-55
2022/02/26 11:04:52;;;;;;;10.43;2.40;;;16.00;46.70;;;;;;5061561;28;20879;-56
2022/02/26 11:07:18;;;;;;;8.38;2.38;;;16.60;47.80;;;;;;5061867;28;20388;-56
2022/02/26 11:09:47;;;;;;;9.00;2.55;;;17.20;45.50;;;;;;5062417;28;20459;-57
2022/02/26 11:12:15;;;;;;;11.10;2.80;;;16.80;44.50;;;;;;5068788;28;20433;-56
2022/02/26 11:15:01;;;;;;;10.85;3.45;;;16.70;45.50;;;;;;5052780;28;20472;-57
2022/02/26 11:17:29;;;;;;;10.02;3.20;;;17.20;47.30;;;;;;5074617;28;20395;-56
2022/02/26 11:20:04;;;;;;;10.85;3.53;;;17.20;45.10;;;;;;5083634;28;20442;-55
2022/02/26 11:22:30;;;;;;;9.90;3.78;;;15.60;45.80;;;;;;5071303;28;20422;-57
2022/02/26 11:24:55;;;;;;;9.73;2.90;;;14.30;47.80;;;;;;5064717;28;20390;-55
2022/02/26 11:27:23;;;;;;;10.27;2.50;;;13.10;48.50;;;;;;5081635;28;20433;-55
2022/02/26 11:29:50;;;;;;;10.45;2.67;;;12.60;49.30;;;;;;5084731;28;20457;-53
2022/02/26 11:32:20;;;;;;;11.02;2.72;;;12.40;50.90;;;;;;5073739;28;20396;-54
2022/02/26 11:34:47;;;;;;;10.60;2.80;;;11.50;51.00;;;;;;5081897;28;22038;-55
2022/02/26 11:37:15;;;;;;;12.75;3.50;;;11.90;53.70;;;;;;5073405;28;20434;-55
2022/02/26 11:39:44;;;;;;;11.90;2.42;;;12.50;53.20;;;;;;5070644;28;20419;-54
2022/02/26 11:42:18;;;;;;;9.60;2.80;;;12.50;51.50;;;;;;5076511;28;20411;-59
2022/02/26 11:44:51;;;;;;;12.02;2.55;;;12.00;53.10;;;;;;5070388;28;20457;-55
2022/02/26 11:47:18;;;;;;;11.38;2.85;;;11.90;53.00;;;;;;5070576;28;20387;-55
2022/02/26 11:50:10;;;;;;;9.75;2.45;;;12.00;54.00;;;;;;5070963;28;20813;-55
2022/02/26 11:52:37;;;;;;;10.02;2.72;;;11.80;53.90;;;;;;5063656;28;20421;-54
2022/02/26 11:55:30;;;;;;;11.40;2.83;;;11.60;53.00;;;;;;5070622;28;20439;-55
2022/02/26 11:58:11;;;;;;;8.02;2.15;;;11.60;52.50;;;;;;5028717;28;20419;-55
2022/02/26 12:00:43;;;;;;;8.55;3.60;;;11.70;53.20;;;;;;5062356;28;20390;-54
2022/02/26 12:03:20;;;;;;;7.40;2.97;;;11.80;52.40;;;;;;5071736;28;20398;-57
2022/02/26 12:05:49;;;;;;;10.77;4.20;;;11.90;53.00;;;;;;5082108;28;20415;-54
2022/02/26 12:08:19;;;;;;;10.75;4.30;;;11.80;54.20;;;;;;5070085;28;20388;-54
2022/02/26 12:10:55;;;;;;;10.00;3.65;;;12.10;53.70;;;;;;5065317;28;20491;-54
2022/02/26 12:13:33;;;;;;;9.48;4.25;;;12.10;53.10;;;;;;5061237;28;20880;-54
2022/02/26 12:16:25;;;;;;;9.35;3.97;;;11.90;52.90;;;;;;5052582;28;20444;-54
2022/02/26 12:18:58;;;;;;;13.32;6.35;;;11.70;54.00;;;;;;5064284;28;20480;-58
2022/02/26 12:21:32;;;;;;;11.43;4.73;;;11.30;53.10;;;;;;5068240;28;20420;-57
2022/02/26 12:24:05;;;;;;;12.20;5.18;;;11.10;53.50;;;;;;5068465;28;20368;-56
2022/02/26 12:26:46;;;;;;;10.38;4.07;;;10.70;54.30;;;;;;5061654;28;20968;-57
2022/02/26 12:29:32;;;;;;;11.55;3.47;;;10.40;56.60;;;;;;5065549;28;20407;-58
2022/02/26 12:32:35;;;;;;;12.70;4.30;;;9.90;58.50;;;;;;5067161;28;20410;-58
2022/02/26 12:35:11;;;;;;;10.13;2.58;;;9.60;59.20;;;;;;5032027;28;20436;-57
2022/02/26 12:37:43;;;;;;;13.27;2.60;;;9.60;59.80;;;;;;5061206;28;20390;-57
2022/02/26 12:40:11;;;;;;;10.80;2.47;;;9.00;61.90;;;;;;5064589;28;20730;-57
2022/02/26 12:42:45;;;;;;;10.15;2.53;;;8.80;63.50;;;;;;5056821;28;20410;-55
2022/02/26 12:45:13;;;;;;;8.13;2.67;;;8.90;64.60;;;;;;5057568;28;20414;-56
2022/02/26 12:47:40;;;;;;;11.65;2.53;;;8.80;65.20;;;;;;5062238;28;20461;-56
2022/02/26 12:50:09;;;;;;;12.03;2.77;;;8.30;67.70;;;;;;5066412;28;20451;-54